sensor_id;sensor_type;location;lat;lon;timestamp;P1;durP1;ratioP1;P2;durP2;ratioP2
48006;SDS011;33771;48.180;11.400;2022-08-01T00:00:34;5.45;;;2.35;;
48006;SDS011;33771;48.180;11.400;2022-08-01T00:03:00;4.65;;;2.00;;
48006;SDS011;33771;48.180;11.400;2022-08-01T00:05:26;4.22;;;2.22;;
48006;SDS011;33771;48.180;11.400;2022-08-01T00:07:51;2.60;;;1.83;;
48006;SDS011;33771;48.180;11.400;2022-08-01T00:10:17;6.85;;;2.53;;
48006;SDS011;33771;48.180;11.400;2022-08-01T00:12:43;2.42;;;2.05;;
48006;SDS011;33771;48.180;11.400;2022-08-01T00:15:10;4.22;;;2.20;;
48006;SDS011;33771;48.180;11.400;2022-08-01T00:17:57;9.82;;;2.50;;
48006;SDS011;33771;48.180;11.400;2022-08-01T00:20:22;4.55;;;2.38;;
48006;SDS011;33771;48.180;11.400;2022-08-01T00:22:48;3.17;;;2.10;;
48006;SDS011;33771;48.180;11.400;2022-08-01T00:25:13;2.67;;;2.28;;
48006;SDS011;33771;48.180;11.400;2022-08-01T00:27:39;5.05;;;2.30;;
48006;SDS011;33771;48.180;11.400;2022-08-01T00:30:05;4.15;;;2.30;;
48006;SDS011;33771;48.180;11.400;2022-08-01T00:32:31;4.03;;;2.22;;
48006;SDS011;33771;48.180;11.400;2022-08-01T00:34:57;3.20;;;2.28;;
48006;SDS011;33771;48.180;11.400;2022-08-01T00:37:22;5.68;;;2.25;;
48006;SDS011;33771;48.180;11.400;2022-08-01T00:39:48;5.53;;;2.47;;
48006;SDS011;33771;48.180;11.400;2022-08-01T00:42:13;4.55;;;2.35;;
48006;SDS011;33771;48.180;11.400;2022-08-01T00:44:39;4.88;;;2.00;;
48006;SDS011;33771;48.180;11.400;2022-08-01T00:47:05;3.28;;;1.95;;
48006;SDS011;33771;48.180;11.400;2022-08-01T00:49:31;5.72;;;2.05;;
48006;SDS011;33771;48.180;11.400;2022-08-01T00:51:57;2.78;;;2.08;;
48006;SDS011;33771;48.180;11.400;2022-08-01T00:54:24;4.63;;;2.10;;
48006;SDS011;33771;48.180;11.400;2022-08-01T00:56:50;3.83;;;2.13;;
48006;SDS011;33771;48.180;11.400;2022-08-01T00:59:17;2.25;;;1.85;;
48006;SDS011;33771;48.180;11.400;2022-08-01T01:01:43;3.85;;;1.88;;
48006;SDS011;33771;48.180;11.400;2022-08-01T01:04:08;3.60;;;2.22;;
48006;SDS011;33771;48.180;11.400;2022-08-01T01:09:15;3.95;;;2.42;;
48006;SDS011;33771;48.180;11.400;2022-08-01T01:12:01;4.18;;;2.05;;
48006;SDS011;33771;48.180;11.400;2022-08-01T01:14:38;4.57;;;2.15;;
48006;SDS011;33771;48.180;11.400;2022-08-01T01:17:16;4.88;;;2.10;;
48006;SDS011;33771;48.180;11.400;2022-08-01T01:19:53;3.72;;;1.95;;
48006;SDS011;33771;48.180;11.400;2022-08-01T01:22:32;5.70;;;2.30;;
48006;SDS011;33771;48.180;11.400;2022-08-01T01:30:50;4.90;;;2.42;;
48006;SDS011;33771;48.180;11.400;2022-08-01T01:33:20;5.07;;;2.05;;
48006;SDS011;33771;48.180;11.400;2022-08-01T01:35:49;4.60;;;2.10;;
48006;SDS011;33771;48.180;11.400;2022-08-01T01:38:20;4.72;;;2.50;;
48006;SDS011;33771;48.180;11.400;2022-08-01T01:40:48;4.55;;;2.42;;
48006;SDS011;33771;48.180;11.400;2022-08-01T01:43:15;3.22;;;2.05;;
48006;SDS011;33771;48.180;11.400;2022-08-01T01:45:43;5.75;;;2.08;;
48006;SDS011;33771;48.180;11.400;2022-08-01T01:48:12;2.75;;;2.10;;
48006;SDS011;33771;48.180;11.400;2022-08-01T01:50:42;4.50;;;2.33;;
48006;SDS011;33771;48.180;11.400;2022-08-01T01:53:09;4.72;;;2.10;;
48006;SDS011;33771;48.180;11.400;2022-08-01T01:55:38;5.82;;;2.10;;
48006;SDS011;33771;48.180;11.400;2022-08-01T01:58:06;3.95;;;2.30;;
48006;SDS011;33771;48.180;11.400;2022-08-01T02:00:33;3.35;;;1.90;;
48006;SDS011;33771;48.180;11.400;2022-08-01T02:03:00;5.70;;;2.63;;
48006;SDS011;33771;48.180;11.400;2022-08-01T02:05:29;3.85;;;2.10;;
48006;SDS011;33771;48.180;11.400;2022-08-01T02:07:55;5.78;;;2.30;;
48006;SDS011;33771;48.180;11.400;2022-08-01T02:10:21;5.10;;;2.17;;
48006;SDS011;33771;48.180;11.400;2022-08-01T02:12:48;3.33;;;2.00;;
48006;SDS011;33771;48.180;11.400;2022-08-01T02:15:15;2.30;;;1.88;;
48006;SDS011;33771;48.180;11.400;2022-08-01T02:17:43;5.68;;;2.13;;
48006;SDS011;33771;48.180;11.400;2022-08-01T02:20:13;3.88;;;2.30;;
48006;SDS011;33771;48.180;11.400;2022-08-01T02:22:42;6.43;;;2.55;;
48006;SDS011;33771;48.180;11.400;2022-08-01T02:28:10;5.07;;;2.35;;
48006;SDS011;33771;48.180;11.400;2022-08-01T02:33:16;7.88;;;2.28;;
48006;SDS011;33771;48.180;11.400;2022-08-01T02:35:47;7.97;;;2.60;;
48006;SDS011;33771;48.180;11.400;2022-08-01T02:38:15;3.13;;;2.25;;
48006;SDS011;33771;48.180;11.400;2022-08-01T02:40:45;3.65;;;2.20;;
48006;SDS011;33771;48.180;11.400;2022-08-01T02:43:12;2.65;;;2.28;;
48006;SDS011;33771;48.180;11.400;2022-08-01T02:45:45;4.45;;;1.90;;
48006;SDS011;33771;48.180;11.400;2022-08-01T02:48:17;3.25;;;2.45;;
48006;SDS011;33771;48.180;11.400;2022-08-01T02:50:45;3.40;;;2.28;;
48006;SDS011;33771;48.180;11.400;2022-08-01T02:53:13;2.97;;;2.10;;
48006;SDS011;33771;48.180;11.400;2022-08-01T02:55:42;3.60;;;2.10;;
48006;SDS011;33771;48.180;11.400;2022-08-01T02:58:10;6.85;;;2.58;;
48006;SDS011;33771;48.180;11.400;2022-08-01T03:00:39;6.05;;;2.30;;
48006;SDS011;33771;48.180;11.400;2022-08-01T03:03:06;7.50;;;2.38;;
48006;SDS011;33771;48.180;11.400;2022-08-01T03:05:33;4.63;;;2.70;;
48006;SDS011;33771;48.180;11.400;2022-08-01T03:08:00;3.53;;;2.20;;
48006;SDS011;33771;48.180;11.400;2022-08-01T03:10:27;3.63;;;2.20;;
48006;SDS011;33771;48.180;11.400;2022-08-01T03:12:54;5.28;;;2.30;;
48006;SDS011;33771;48.180;11.400;2022-08-01T03:15:22;4.22;;;2.40;;
48006;SDS011;33771;48.180;11.400;2022-08-01T03:17:50;4.85;;;2.67;;
48006;SDS011;33771;48.180;11.400;2022-08-01T03:20:17;6.43;;;2.38;;
48006;SDS011;33771;48.180;11.400;2022-08-01T03:22:45;4.57;;;2.20;;
48006;SDS011;33771;48.180;11.400;2022-08-01T03:25:13;4.82;;;2.13;;
48006;SDS011;33771;48.180;11.400;2022-08-01T03:27:41;9.35;;;2.95;;
48006;SDS011;33771;48.180;11.400;2022-08-01T03:30:10;4.60;;;2.55;;
48006;SDS011;33771;48.180;11.400;2022-08-01T03:32:37;8.68;;;2.70;;
48006;SDS011;33771;48.180;11.400;2022-08-01T03:35:03;3.03;;;2.17;;
48006;SDS011;33771;48.180;11.400;2022-08-01T03:37:29;4.95;;;2.40;;
48006;SDS011;33771;48.180;11.400;2022-08-01T03:40:05;6.15;;;2.55;;
48006;SDS011;33771;48.180;11.400;2022-08-01T03:42:39;8.27;;;2.88;;
48006;SDS011;33771;48.180;11.400;2022-08-01T03:45:10;3.03;;;2.30;;
48006;SDS011;33771;48.180;11.400;2022-08-01T03:47:42;4.90;;;2.55;;
48006;SDS011;33771;48.180;11.400;2022-08-01T03:50:08;4.60;;;2.47;;
48006;SDS011;33771;48.180;11.400;2022-08-01T03:52:36;4.97;;;3.05;;
48006;SDS011;33771;48.180;11.400;2022-08-01T03:55:05;3.03;;;2.53;;
48006;SDS011;33771;48.180;11.400;2022-08-01T03:57:32;8.35;;;2.88;;
48006;SDS011;33771;48.180;11.400;2022-08-01T03:59:59;3.22;;;2.25;;
48006;SDS011;33771;48.180;11.400;2022-08-01T04:02:28;4.78;;;2.70;;
48006;SDS011;33771;48.180;11.400;2022-08-01T04:04:54;6.05;;;2.42;;
48006;SDS011;33771;48.180;11.400;2022-08-01T04:07:27;5.72;;;2.53;;
48006;SDS011;33771;48.180;11.400;2022-08-01T04:09:54;6.55;;;2.55;;
48006;SDS011;33771;48.180;11.400;2022-08-01T04:12:20;5.65;;;2.88;;
48006;SDS011;33771;48.180;11.400;2022-08-01T04:14:46;2.70;;;2.10;;
48006;SDS011;33771;48.180;11.400;2022-08-01T04:17:12;5.80;;;2.60;;
48006;SDS011;33771;48.180;11.400;2022-08-01T04:19:37;3.35;;;2.30;;
48006;SDS011;33771;48.180;11.400;2022-08-01T04:22:03;4.43;;;2.58;;
48006;SDS011;33771;48.180;11.400;2022-08-01T04:24:30;5.35;;;2.42;;
48006;SDS011;33771;48.180;11.400;2022-08-01T04:26:57;5.57;;;2.58;;
48006;SDS011;33771;48.180;11.400;2022-08-01T04:29:25;5.22;;;2.55;;
48006;SDS011;33771;48.180;11.400;2022-08-01T04:31:53;5.90;;;2.40;;
48006;SDS011;33771;48.180;11.400;2022-08-01T04:34:21;3.63;;;2.50;;
48006;SDS011;33771;48.180;11.400;2022-08-01T04:36:51;4.13;;;2.80;;
48006;SDS011;33771;48.180;11.400;2022-08-01T04:39:19;4.13;;;2.72;;
48006;SDS011;33771;48.180;11.400;2022-08-01T04:41:48;5.95;;;2.72;;
48006;SDS011;33771;48.180;11.400;2022-08-01T04:44:15;3.80;;;2.33;;
48006;SDS011;33771;48.180;11.400;2022-08-01T04:46:41;4.88;;;2.88;;
48006;SDS011;33771;48.180;11.400;2022-08-01T04:49:07;3.75;;;2.42;;
48006;SDS011;33771;48.180;11.400;2022-08-01T04:51:34;3.80;;;2.30;;
48006;SDS011;33771;48.180;11.400;2022-08-01T04:54:00;3.55;;;2.60;;
48006;SDS011;33771;48.180;11.400;2022-08-01T04:56:26;3.10;;;2.40;;
48006;SDS011;33771;48.180;11.400;2022-08-01T04:58:51;4.72;;;2.58;;
48006;SDS011;33771;48.180;11.400;2022-08-01T05:01:37;3.58;;;2.20;;
48006;SDS011;33771;48.180;11.400;2022-08-01T05:04:02;3.60;;;2.30;;
48006;SDS011;33771;48.180;11.400;2022-08-01T05:06:28;7.55;;;2.53;;
48006;SDS011;33771;48.180;11.400;2022-08-01T05:08:54;6.47;;;2.53;;
48006;SDS011;33771;48.180;11.400;2022-08-01T05:11:19;3.38;;;2.33;;
48006;SDS011;33771;48.180;11.400;2022-08-01T05:13:46;5.50;;;2.30;;
48006;SDS011;33771;48.180;11.400;2022-08-01T05:16:12;5.68;;;2.33;;
48006;SDS011;33771;48.180;11.400;2022-08-01T05:18:38;4.43;;;2.80;;
48006;SDS011;33771;48.180;11.400;2022-08-01T05:21:03;6.53;;;3.00;;
48006;SDS011;33771;48.180;11.400;2022-08-01T05:23:29;3.78;;;2.50;;
48006;SDS011;33771;48.180;11.400;2022-08-01T05:25:54;4.22;;;2.20;;
48006;SDS011;33771;48.180;11.400;2022-08-01T05:28:20;5.20;;;2.63;;
48006;SDS011;33771;48.180;11.400;2022-08-01T05:30:45;4.80;;;2.72;;
48006;SDS011;33771;48.180;11.400;2022-08-01T05:33:11;3.88;;;2.30;;
48006;SDS011;33771;48.180;11.400;2022-08-01T05:35:37;4.30;;;2.35;;
48006;SDS011;33771;48.180;11.400;2022-08-01T05:38:02;4.18;;;2.50;;
48006;SDS011;33771;48.180;11.400;2022-08-01T05:40:28;7.35;;;2.67;;
48006;SDS011;33771;48.180;11.400;2022-08-01T05:42:53;4.22;;;2.55;;
48006;SDS011;33771;48.180;11.400;2022-08-01T05:45:19;4.32;;;2.38;;
48006;SDS011;33771;48.180;11.400;2022-08-01T05:47:44;4.05;;;2.30;;
48006;SDS011;33771;48.180;11.400;2022-08-01T05:50:10;3.60;;;2.42;;
48006;SDS011;33771;48.180;11.400;2022-08-01T05:52:35;4.18;;;2.70;;
48006;SDS011;33771;48.180;11.400;2022-08-01T05:55:01;7.70;;;2.50;;
48006;SDS011;33771;48.180;11.400;2022-08-01T05:57:27;4.47;;;2.58;;
48006;SDS011;33771;48.180;11.400;2022-08-01T05:59:53;5.45;;;2.40;;
48006;SDS011;33771;48.180;11.400;2022-08-01T06:02:18;4.50;;;2.50;;
48006;SDS011;33771;48.180;11.400;2022-08-01T06:04:44;4.45;;;2.42;;
48006;SDS011;33771;48.180;11.400;2022-08-01T06:07:09;4.03;;;2.70;;
48006;SDS011;33771;48.180;11.400;2022-08-01T06:09:35;4.70;;;2.63;;
48006;SDS011;33771;48.180;11.400;2022-08-01T06:12:00;6.20;;;2.80;;
48006;SDS011;33771;48.180;11.400;2022-08-01T06:14:26;5.57;;;2.58;;
48006;SDS011;33771;48.180;11.400;2022-08-01T06:16:51;4.65;;;2.72;;
48006;SDS011;33771;48.180;11.400;2022-08-01T06:19:17;9.10;;;2.63;;
48006;SDS011;33771;48.180;11.400;2022-08-01T06:21:43;9.38;;;3.13;;
48006;SDS011;33771;48.180;11.400;2022-08-01T06:24:08;4.32;;;2.42;;
48006;SDS011;33771;48.180;11.400;2022-08-01T06:26:34;3.60;;;2.25;;
48006;SDS011;33771;48.180;11.400;2022-08-01T06:29:01;4.57;;;2.60;;
48006;SDS011;33771;48.180;11.400;2022-08-01T06:31:26;4.22;;;2.42;;
48006;SDS011;33771;48.180;11.400;2022-08-01T06:33:52;3.53;;;2.47;;
48006;SDS011;33771;48.180;11.400;2022-08-01T06:36:18;7.68;;;2.83;;
48006;SDS011;33771;48.180;11.400;2022-08-01T06:38:44;6.60;;;2.40;;
48006;SDS011;33771;48.180;11.400;2022-08-01T06:41:09;4.82;;;2.67;;
48006;SDS011;33771;48.180;11.400;2022-08-01T06:43:35;4.88;;;2.42;;
48006;SDS011;33771;48.180;11.400;2022-08-01T06:46:00;4.50;;;2.45;;
48006;SDS011;33771;48.180;11.400;2022-08-01T06:48:26;4.90;;;2.53;;
48006;SDS011;33771;48.180;11.400;2022-08-01T06:50:51;6.20;;;2.67;;
48006;SDS011;33771;48.180;11.400;2022-08-01T06:53:32;5.75;;;2.67;;
48006;SDS011;33771;48.180;11.400;2022-08-01T06:55:59;4.60;;;2.85;;
48006;SDS011;33771;48.180;11.400;2022-08-01T06:58:24;3.53;;;2.63;;
48006;SDS011;33771;48.180;11.400;2022-08-01T07:00:50;5.05;;;2.58;;
48006;SDS011;33771;48.180;11.400;2022-08-01T07:03:15;3.70;;;2.60;;
48006;SDS011;33771;48.180;11.400;2022-08-01T07:05:41;3.55;;;2.70;;
48006;SDS011;33771;48.180;11.400;2022-08-01T07:08:07;3.08;;;2.30;;
48006;SDS011;33771;48.180;11.400;2022-08-01T07:10:32;3.72;;;2.67;;
48006;SDS011;33771;48.180;11.400;2022-08-01T07:12:58;4.22;;;2.90;;
48006;SDS011;33771;48.180;11.400;2022-08-01T07:15:23;5.25;;;2.70;;
48006;SDS011;33771;48.180;11.400;2022-08-01T07:17:51;3.00;;;2.55;;
48006;SDS011;33771;48.180;11.400;2022-08-01T07:20:17;3.15;;;2.70;;
48006;SDS011;33771;48.180;11.400;2022-08-01T07:22:43;7.75;;;3.15;;
48006;SDS011;33771;48.180;11.400;2022-08-01T07:25:09;4.05;;;2.53;;
48006;SDS011;33771;48.180;11.400;2022-08-01T07:27:34;5.40;;;2.72;;
48006;SDS011;33771;48.180;11.400;2022-08-01T07:30:00;3.85;;;2.75;;
48006;SDS011;33771;48.180;11.400;2022-08-01T07:32:26;3.95;;;2.63;;
48006;SDS011;33771;48.180;11.400;2022-08-01T07:34:54;4.13;;;2.72;;
48006;SDS011;33771;48.180;11.400;2022-08-01T07:37:19;5.20;;;3.20;;
48006;SDS011;33771;48.180;11.400;2022-08-01T07:39:45;4.43;;;2.78;;
48006;SDS011;33771;48.180;11.400;2022-08-01T07:42:13;3.92;;;2.42;;
48006;SDS011;33771;48.180;11.400;2022-08-01T07:44:38;9.40;;;2.80;;
48006;SDS011;33771;48.180;11.400;2022-08-01T07:47:04;4.40;;;2.63;;
48006;SDS011;33771;48.180;11.400;2022-08-01T07:49:30;3.83;;;2.60;;
48006;SDS011;33771;48.180;11.400;2022-08-01T07:51:55;7.35;;;3.00;;
48006;SDS011;33771;48.180;11.400;2022-08-01T07:54:21;4.38;;;2.83;;
48006;SDS011;33771;48.180;11.400;2022-08-01T07:56:49;6.13;;;2.75;;
48006;SDS011;33771;48.180;11.400;2022-08-01T07:59:15;3.50;;;2.90;;
48006;SDS011;33771;48.180;11.400;2022-08-01T08:01:40;3.67;;;2.72;;
48006;SDS011;33771;48.180;11.400;2022-08-01T08:04:06;4.88;;;2.50;;
48006;SDS011;33771;48.180;11.400;2022-08-01T08:06:35;4.38;;;2.83;;
48006;SDS011;33771;48.180;11.400;2022-08-01T08:09:00;4.82;;;2.50;;
48006;SDS011;33771;48.180;11.400;2022-08-01T08:11:26;3.85;;;2.70;;
48006;SDS011;33771;48.180;11.400;2022-08-01T08:13:52;4.38;;;2.42;;
48006;SDS011;33771;48.180;11.400;2022-08-01T08:16:17;6.05;;;3.40;;
48006;SDS011;33771;48.180;11.400;2022-08-01T08:18:43;4.95;;;2.65;;
48006;SDS011;33771;48.180;11.400;2022-08-01T08:21:08;5.15;;;2.53;;
48006;SDS011;33771;48.180;11.400;2022-08-01T08:23:34;3.85;;;2.50;;
48006;SDS011;33771;48.180;11.400;2022-08-01T08:26:18;4.55;;;2.80;;
48006;SDS011;33771;48.180;11.400;2022-08-01T08:28:43;4.35;;;2.80;;
48006;SDS011;33771;48.180;11.400;2022-08-01T08:31:09;4.75;;;2.42;;
48006;SDS011;33771;48.180;11.400;2022-08-01T08:33:35;3.83;;;2.60;;
48006;SDS011;33771;48.180;11.400;2022-08-01T08:36:00;9.32;;;3.20;;
48006;SDS011;33771;48.180;11.400;2022-08-01T08:38:26;5.32;;;2.88;;
48006;SDS011;33771;48.180;11.400;2022-08-01T08:40:52;5.40;;;3.17;;
48006;SDS011;33771;48.180;11.400;2022-08-01T08:43:18;3.17;;;2.42;;
48006;SDS011;33771;48.180;11.400;2022-08-01T08:45:44;6.28;;;2.80;;
48006;SDS011;33771;48.180;11.400;2022-08-01T08:48:10;4.47;;;2.50;;
48006;SDS011;33771;48.180;11.400;2022-08-01T08:50:37;3.38;;;2.58;;
48006;SDS011;33771;48.180;11.400;2022-08-01T08:53:03;4.35;;;2.30;;
48006;SDS011;33771;48.180;11.400;2022-08-01T08:55:29;4.07;;;2.83;;
48006;SDS011;33771;48.180;11.400;2022-08-01T08:57:54;4.47;;;2.38;;
48006;SDS011;33771;48.180;11.400;2022-08-01T09:00:22;4.85;;;2.65;;
48006;SDS011;33771;48.180;11.400;2022-08-01T09:02:48;4.50;;;2.47;;
48006;SDS011;33771;48.180;11.400;2022-08-01T09:05:20;4.50;;;2.72;;
48006;SDS011;33771;48.180;11.400;2022-08-01T09:07:50;5.90;;;2.70;;
48006;SDS011;33771;48.180;11.400;2022-08-01T09:10:18;3.60;;;2.33;;
48006;SDS011;33771;48.180;11.400;2022-08-01T09:13:01;3.53;;;2.15;;
48006;SDS011;33771;48.180;11.400;2022-08-01T09:25:57;3.53;;;2.33;;
48006;SDS011;33771;48.180;11.400;2022-08-01T09:28:29;4.57;;;2.05;;
48006;SDS011;33771;48.180;11.400;2022-08-01T09:30:55;3.05;;;2.13;;
48006;SDS011;33771;48.180;11.400;2022-08-01T09:33:22;6.55;;;2.17;;
48006;SDS011;33771;48.180;11.400;2022-08-01T09:35:54;2.97;;;1.90;;
48006;SDS011;33771;48.180;11.400;2022-08-01T09:38:22;2.17;;;1.90;;
48006;SDS011;33771;48.180;11.400;2022-08-01T09:40:55;5.63;;;2.10;;
48006;SDS011;33771;48.180;11.400;2022-08-01T09:43:23;3.95;;;1.90;;
48006;SDS011;33771;48.180;11.400;2022-08-01T09:45:50;4.25;;;2.45;;
48006;SDS011;33771;48.180;11.400;2022-08-01T09:48:17;5.78;;;2.35;;
48006;SDS011;33771;48.180;11.400;2022-08-01T09:50:45;2.33;;;1.70;;
48006;SDS011;33771;48.180;11.400;2022-08-01T09:53:13;6.05;;;2.08;;
48006;SDS011;33771;48.180;11.400;2022-08-01T09:55:40;3.25;;;1.90;;
48006;SDS011;33771;48.180;11.400;2022-08-01T09:58:09;6.03;;;1.95;;
48006;SDS011;33771;48.180;11.400;2022-08-01T10:00:36;2.65;;;1.80;;
48006;SDS011;33771;48.180;11.400;2022-08-01T10:03:26;3.22;;;1.55;;
48006;SDS011;33771;48.180;11.400;2022-08-01T10:05:52;2.92;;;1.60;;
48006;SDS011;33771;48.180;11.400;2022-08-01T10:08:22;4.05;;;1.90;;
48006;SDS011;33771;48.180;11.400;2022-08-01T10:11:08;5.15;;;2.20;;
48006;SDS011;33771;48.180;11.400;2022-08-01T10:13:37;2.22;;;1.58;;
48006;SDS011;33771;48.180;11.400;2022-08-01T10:16:03;11.50;;;2.10;;
48006;SDS011;33771;48.180;11.400;2022-08-01T10:18:31;3.35;;;1.92;;
48006;SDS011;33771;48.180;11.400;2022-08-01T10:21:00;1.55;;;1.23;;
48006;SDS011;33771;48.180;11.400;2022-08-01T10:23:26;3.67;;;1.85;;
48006;SDS011;33771;48.180;11.400;2022-08-01T10:25:55;4.65;;;2.00;;
48006;SDS011;33771;48.180;11.400;2022-08-01T10:28:23;4.13;;;1.58;;
48006;SDS011;33771;48.180;11.400;2022-08-01T10:30:50;6.13;;;1.85;;
48006;SDS011;33771;48.180;11.400;2022-08-01T10:33:17;2.75;;;1.60;;
48006;SDS011;33771;48.180;11.400;2022-08-01T10:35:44;3.30;;;1.85;;
48006;SDS011;33771;48.180;11.400;2022-08-01T10:38:10;5.38;;;1.80;;
48006;SDS011;33771;48.180;11.400;2022-08-01T10:40:37;6.78;;;1.77;;
48006;SDS011;33771;48.180;11.400;2022-08-01T10:43:03;2.90;;;1.65;;
48006;SDS011;33771;48.180;11.400;2022-08-01T10:45:29;3.20;;;1.95;;
48006;SDS011;33771;48.180;11.400;2022-08-01T10:50:44;3.45;;;1.70;;
48006;SDS011;33771;48.180;11.400;2022-08-01T10:53:24;5.88;;;1.60;;
48006;SDS011;33771;48.180;11.400;2022-08-01T10:58:28;3.35;;;1.55;;
48006;SDS011;33771;48.180;11.400;2022-08-01T11:01:21;4.13;;;1.88;;
48006;SDS011;33771;48.180;11.400;2022-08-01T11:04:07;4.40;;;1.70;;
48006;SDS011;33771;48.180;11.400;2022-08-01T11:06:48;2.83;;;1.50;;
48006;SDS011;33771;48.180;11.400;2022-08-01T11:12:40;2.92;;;1.63;;
48006;SDS011;33771;48.180;11.400;2022-08-01T11:17:40;3.20;;;1.50;;
48006;SDS011;33771;48.180;11.400;2022-08-01T11:20:15;4.18;;;1.63;;
48006;SDS011;33771;48.180;11.400;2022-08-01T11:30:48;3.88;;;1.50;;
48006;SDS011;33771;48.180;11.400;2022-08-01T11:33:47;8.57;;;2.47;;
48006;SDS011;33771;48.180;11.400;2022-08-01T11:38:36;3.63;;;1.30;;
48006;SDS011;33771;48.180;11.400;2022-08-01T11:49:33;2.13;;;1.30;;
48006;SDS011;33771;48.180;11.400;2022-08-01T11:52:09;3.78;;;1.33;;
48006;SDS011;33771;48.180;11.400;2022-08-01T11:57:11;2.88;;;1.40;;
48006;SDS011;33771;48.180;11.400;2022-08-01T11:59:43;3.08;;;1.58;;
48006;SDS011;33771;48.180;11.400;2022-08-01T12:02:20;2.00;;;1.27;;
48006;SDS011;33771;48.180;11.400;2022-08-01T12:04:50;2.97;;;1.30;;
48006;SDS011;33771;48.180;11.400;2022-08-01T12:07:24;2.08;;;1.13;;
48006;SDS011;33771;48.180;11.400;2022-08-01T12:10:02;2.30;;;1.13;;
48006;SDS011;33771;48.180;11.400;2022-08-01T12:12:34;3.13;;;1.40;;
48006;SDS011;33771;48.180;11.400;2022-08-01T12:15:03;2.22;;;1.10;;
48006;SDS011;33771;48.180;11.400;2022-08-01T12:20:04;2.97;;;1.20;;
48006;SDS011;33771;48.180;11.400;2022-08-01T12:22:39;4.55;;;1.30;;
48006;SDS011;33771;48.180;11.400;2022-08-01T12:25:12;2.55;;;1.20;;
48006;SDS011;33771;48.180;11.400;2022-08-01T12:27:40;4.47;;;1.10;;
48006;SDS011;33771;48.180;11.400;2022-08-01T12:30:10;3.53;;;1.40;;
48006;SDS011;33771;48.180;11.400;2022-08-01T12:32:41;2.70;;;1.10;;
48006;SDS011;33771;48.180;11.400;2022-08-01T12:35:10;1.60;;;1.20;;
48006;SDS011;33771;48.180;11.400;2022-08-01T12:42:43;2.45;;;1.17;;
48006;SDS011;33771;48.180;11.400;2022-08-01T12:45:15;1.80;;;1.10;;
48006;SDS011;33771;48.180;11.400;2022-08-01T12:48:05;3.22;;;1.20;;
48006;SDS011;33771;48.180;11.400;2022-08-01T12:50:33;3.78;;;1.10;;
48006;SDS011;33771;48.180;11.400;2022-08-01T12:53:01;5.50;;;1.45;;
48006;SDS011;33771;48.180;11.400;2022-08-01T12:55:29;2.65;;;1.30;;
48006;SDS011;33771;48.180;11.400;2022-08-01T12:58:05;3.45;;;1.30;;
48006;SDS011;33771;48.180;11.400;2022-08-01T13:00:36;5.90;;;1.27;;
48006;SDS011;33771;48.180;11.400;2022-08-01T13:03:09;2.65;;;1.30;;
48006;SDS011;33771;48.180;11.400;2022-08-01T13:05:50;5.38;;;1.60;;
48006;SDS011;33771;48.180;11.400;2022-08-01T13:08:20;3.53;;;1.30;;
48006;SDS011;33771;48.180;11.400;2022-08-01T13:10:47;3.30;;;1.50;;
48006;SDS011;33771;48.180;11.400;2022-08-01T13:13:14;2.17;;;1.40;;
48006;SDS011;33771;48.180;11.400;2022-08-01T13:15:41;4.70;;;1.40;;
48006;SDS011;33771;48.180;11.400;2022-08-01T13:18:27;2.65;;;1.52;;
48006;SDS011;33771;48.180;11.400;2022-08-01T13:21:11;2.55;;;1.50;;
48006;SDS011;33771;48.180;11.400;2022-08-01T13:26:45;4.05;;;1.50;;
48006;SDS011;33771;48.180;11.400;2022-08-01T13:29:14;3.20;;;1.52;;
48006;SDS011;33771;48.180;11.400;2022-08-01T13:31:41;3.10;;;1.50;;
48006;SDS011;33771;48.180;11.400;2022-08-01T13:34:08;3.58;;;1.90;;
48006;SDS011;33771;48.180;11.400;2022-08-01T13:36:34;2.85;;;1.73;;
48006;SDS011;33771;48.180;11.400;2022-08-01T13:39:01;3.05;;;1.60;;
48006;SDS011;33771;48.180;11.400;2022-08-01T13:41:46;3.55;;;2.20;;
48006;SDS011;33771;48.180;11.400;2022-08-01T13:44:12;2.88;;;1.60;;
48006;SDS011;33771;48.180;11.400;2022-08-01T13:46:39;2.95;;;1.55;;
48006;SDS011;33771;48.180;11.400;2022-08-01T13:49:06;2.35;;;1.60;;
48006;SDS011;33771;48.180;11.400;2022-08-01T13:51:33;6.32;;;1.88;;
48006;SDS011;33771;48.180;11.400;2022-08-01T13:53:58;4.00;;;1.48;;
48006;SDS011;33771;48.180;11.400;2022-08-01T13:56:24;2.83;;;1.60;;
48006;SDS011;33771;48.180;11.400;2022-08-01T13:58:52;4.97;;;1.60;;
48006;SDS011;33771;48.180;11.400;2022-08-01T14:01:18;4.13;;;1.65;;
48006;SDS011;33771;48.180;11.400;2022-08-01T14:03:44;4.68;;;1.70;;
48006;SDS011;33771;48.180;11.400;2022-08-01T14:06:11;4.28;;;1.70;;
48006;SDS011;33771;48.180;11.400;2022-08-01T14:08:37;2.10;;;1.50;;
48006;SDS011;33771;48.180;11.400;2022-08-01T14:11:03;2.05;;;1.50;;
48006;SDS011;33771;48.180;11.400;2022-08-01T14:13:28;4.70;;;1.95;;
48006;SDS011;33771;48.180;11.400;2022-08-01T14:15:54;3.22;;;1.60;;
48006;SDS011;33771;48.180;11.400;2022-08-01T14:18:20;6.20;;;1.80;;
48006;SDS011;33771;48.180;11.400;2022-08-01T14:20:45;4.10;;;1.60;;
48006;SDS011;33771;48.180;11.400;2022-08-01T14:23:11;4.75;;;2.10;;
48006;SDS011;33771;48.180;11.400;2022-08-01T14:25:37;4.40;;;1.70;;
48006;SDS011;33771;48.180;11.400;2022-08-01T14:28:04;6.20;;;1.88;;
48006;SDS011;33771;48.180;11.400;2022-08-01T14:30:31;3.00;;;1.85;;
48006;SDS011;33771;48.180;11.400;2022-08-01T14:32:56;2.80;;;1.70;;
48006;SDS011;33771;48.180;11.400;2022-08-01T14:35:22;4.80;;;1.90;;
48006;SDS011;33771;48.180;11.400;2022-08-01T14:37:47;3.90;;;1.73;;
48006;SDS011;33771;48.180;11.400;2022-08-01T14:40:13;4.03;;;2.05;;
48006;SDS011;33771;48.180;11.400;2022-08-01T14:42:39;4.60;;;1.88;;
48006;SDS011;33771;48.180;11.400;2022-08-01T14:45:05;3.65;;;1.75;;
48006;SDS011;33771;48.180;11.400;2022-08-01T14:47:37;6.03;;;2.15;;
48006;SDS011;33771;48.180;11.400;2022-08-01T14:50:04;4.28;;;1.60;;
48006;SDS011;33771;48.180;11.400;2022-08-01T14:52:31;3.03;;;1.45;;
48006;SDS011;33771;48.180;11.400;2022-08-01T14:54:57;2.75;;;1.55;;
48006;SDS011;33771;48.180;11.400;2022-08-01T14:57:24;4.22;;;1.65;;
48006;SDS011;33771;48.180;11.400;2022-08-01T14:59:50;3.92;;;1.77;;
48006;SDS011;33771;48.180;11.400;2022-08-01T15:02:15;4.13;;;1.80;;
48006;SDS011;33771;48.180;11.400;2022-08-01T15:04:45;6.40;;;1.70;;
48006;SDS011;33771;48.180;11.400;2022-08-01T15:07:11;5.20;;;1.80;;
48006;SDS011;33771;48.180;11.400;2022-08-01T15:09:38;5.53;;;2.20;;
48006;SDS011;33771;48.180;11.400;2022-08-01T15:12:04;4.95;;;1.90;;
48006;SDS011;33771;48.180;11.400;2022-08-01T15:14:30;4.40;;;2.28;;
48006;SDS011;33771;48.180;11.400;2022-08-01T15:17:14;4.30;;;1.88;;
48006;SDS011;33771;48.180;11.400;2022-08-01T15:19:40;7.43;;;1.70;;
48006;SDS011;33771;48.180;11.400;2022-08-01T15:22:06;3.13;;;1.77;;
48006;SDS011;33771;48.180;11.400;2022-08-01T15:24:31;3.55;;;1.65;;
48006;SDS011;33771;48.180;11.400;2022-08-01T15:26:57;2.83;;;1.70;;
48006;SDS011;33771;48.180;11.400;2022-08-01T15:29:23;3.10;;;1.88;;
48006;SDS011;33771;48.180;11.400;2022-08-01T15:31:49;3.70;;;1.65;;
48006;SDS011;33771;48.180;11.400;2022-08-01T15:34:14;4.43;;;1.77;;
48006;SDS011;33771;48.180;11.400;2022-08-01T15:36:40;3.67;;;1.77;;
48006;SDS011;33771;48.180;11.400;2022-08-01T15:39:07;4.75;;;1.70;;
48006;SDS011;33771;48.180;11.400;2022-08-01T15:41:33;4.20;;;1.90;;
48006;SDS011;33771;48.180;11.400;2022-08-01T15:43:59;6.65;;;2.00;;
48006;SDS011;33771;48.180;11.400;2022-08-01T15:46:24;4.75;;;2.10;;